Time;durP1;ratioP1;P1;durP2;ratioP2;P2;SDS_P1;SDS_P2;PMS_P1;PMS_P2;Temp;Humidity;BMP_temperature;BMP_pressure;BME280_temperature;BME280_humidity;BME280_pressure;Samples;Min_cycle;Max_cycle;Signal;HPM_P1;HPM_P2
2023/03/21 00:00:28;;;;;;;24.10;12.55;;;;;;;8.25;100.00;101668.69;5052029;28;20036;-81
2023/03/21 00:02:53;;;;;;;16.70;11.43;;;;;;;8.32;100.00;101672.16;5051442;28;20107;-81
2023/03/21 00:05:19;;;;;;;21.33;12.70;;;;;;;8.33;100.00;101663.50;5052187;28;20152;-81
2023/03/21 00:07:45;;;;;;;21.70;12.15;;;;;;;8.34;100.00;101667.84;5051817;28;20476;-81
2023/03/21 00:10:11;;;;;;;22.65;11.85;;;;;;;8.32;100.00;101657.44;5054245;28;20083;-81
2023/03/21 00:12:36;;;;;;;23.95;12.35;;;;;;;8.36;100.00;101663.50;5055820;28;20028;-81
2023/03/21 00:15:10;;;;;;;19.98;11.15;;;;;;;8.36;100.00;101661.75;5055429;28;20032;-81
2023/03/21 00:17:38;;;;;;;;;;;;;;;8.39;100.00;101655.72;5055154;28;20025;-81
2023/03/21 00:20:05;;;;;;;21.85;11.35;;;;;;;8.40;100.00;101652.25;5055595;28;19912;-81
2023/03/21 00:22:32;;;;;;;20.98;11.27;;;;;;;8.36;100.00;101642.69;5055078;28;20107;-81
2023/03/21 00:24:58;;;;;;;20.33;11.35;;;;;;;8.41;100.00;101646.22;5055030;28;20056;-82
2023/03/21 00:27:23;;;;;;;19.05;11.38;;;;;;;8.34;100.00;101641.84;5041464;28;20420;-81
2023/03/21 00:29:49;;;;;;;21.20;12.25;;;;;;;8.40;100.00;101642.75;5055364;28;20036;-81
2023/03/21 00:32:15;;;;;;;20.35;12.50;;;;;;;7.85;100.00;101543.22;5225976;22;20045;-81
2023/03/21 00:35:02;;;;;;;15.40;10.73;;;;;;;8.42;100.00;101642.72;5055102;28;20107;-81
2023/03/21 00:37:30;;;;;;;22.67;11.68;;;;;;;8.19;100.00;101596.84;5053927;28;20025;-82
2023/03/21 00:40:05;;;;;;;18.42;10.48;;;;;;;8.03;100.00;101566.56;5055535;28;20032;-81
2023/03/21 00:42:59;;;;;;;17.05;10.95;;;;;;;8.05;100.00;101572.63;5054593;28;20032;-81
2023/03/21 00:45:36;;;;;;;22.35;11.30;;;;;;;8.04;100.00;101563.09;5054483;28;20032;-81
2023/03/21 00:48:04;;;;;;;16.45;9.32;;;;;;;8.08;100.00;101563.97;5055108;28;20025;-81
2023/03/21 00:50:31;;;;;;;21.23;10.43;;;;;;;8.40;100.00;101608.97;5046772;28;20045;-81
2023/03/21 00:52:57;;;;;;;17.30;10.13;;;;;;;8.41;100.00;101612.44;5054115;28;20479;-81
2023/03/21 00:55:22;;;;;;;20.75;10.32;;;;;;;8.42;100.00;101609.81;5054897;28;20017;-81
2023/03/21 00:57:47;;;;;;;19.90;10.15;;;;;;;8.41;100.00;101602.91;5054654;28;20033;-81
2023/03/21 01:00:14;;;;;;;16.10;9.60;;;;;;;8.35;100.00;101591.63;5054362;28;20583;-81
2023/03/21 01:02:55;;;;;;;16.25;9.82;;;;;;;8.40;100.00;101592.47;5054350;28;20025;-81
2023/03/21 01:06:03;;;;;;;19.85;9.45;;;;;;;8.33;100.00;101582.94;5041384;28;20486;-81
2023/03/21 01:08:18;;;;;;;20.80;10.10;;;;;;;8.37;100.00;101584.66;5053876;28;20029;-81
2023/03/21 01:10:46;;;;;;;18.85;9.23;;;;;;;8.37;100.00;101589.84;5054748;28;20021;-81
2023/03/21 01:13:13;;;;;;;22.48;8.85;;;;;;;8.37;100.00;101582.97;5053672;28;20029;-81
2023/03/21 01:15:47;;;;;;;16.98;9.07;;;;;;;8.33;100.00;101565.63;5053902;28;20496;-81
2023/03/21 01:18:14;;;;;;;14.35;8.80;;;;;;;8.37;100.00;101579.47;5053843;28;20029;-81
2023/03/21 01:20:41;;;;;;;19.33;9.60;;;;;;;8.35;100.00;101576.88;5053346;28;20071;-81
2023/03/21 01:23:07;;;;;;;19.38;9.02;;;;;;;8.37;100.00;101574.28;5054102;28;20492;-81
2023/03/21 01:25:32;;;;;;;16.77;8.75;;;;;;;8.28;100.00;101559.59;5054157;28;20104;-81
2023/03/21 01:27:58;;;;;;;17.50;8.85;;;;;;;8.38;100.00;101576.91;5053418;28;20028;-81
2023/03/21 01:30:23;;;;;;;19.55;8.60;;;;;;;8.26;100.00;101547.47;5054133;28;20016;-81
2023/03/21 01:32:49;;;;;;;20.80;9.73;;;;;;;8.41;100.00;101568.25;5053747;28;20397;-81
2023/03/21 01:35:14;;;;;;;16.80;9.25;;;;;;;8.35;100.00;101556.09;5053192;28;20028;-82
2023/03/21 01:37:39;;;;;;;17.80;9.35;;;;;;;8.41;100.00;101560.47;5053996;28;20071;-81
2023/03/21 01:40:05;;;;;;;16.52;9.32;;;;;;;8.35;100.00;101550.06;5054322;28;20021;-82
2023/03/21 01:42:31;;;;;;;15.00;8.90;;;;;;;8.41;100.00;101555.25;5052764;28;20040;-81
2023/03/21 01:44:59;;;;;;;14.18;8.27;;;;;;;8.40;100.00;101550.91;5054256;28;20049;-82
2023/03/21 01:47:25;;;;;;;18.38;9.00;;;;;;;8.40;100.00;101554.41;5054038;28;20384;-81
2023/03/21 01:49:53;;;;;;;15.40;8.98;;;;;;;8.39;100.00;101559.59;5053050;28;20514;-81
2023/03/21 01:52:27;;;;;;;16.05;8.85;;;;;;;8.36;100.00;101551.75;5053789;28;20384;-81
2023/03/21 01:54:54;;;;;;;19.73;8.75;;;;;;;8.34;100.00;101549.19;5050648;28;20024;-81
2023/03/21 01:57:31;;;;;;;20.80;9.60;;;;;;;8.34;100.00;101550.94;5053466;28;20025;-81
2023/03/21 02:00:00;;;;;;;16.85;8.80;;;;;;;8.10;100.00;101512.88;5053563;28;20029;-81
2023/03/21 02:02:30;;;;;;;16.48;8.40;;;;;;;8.35;100.00;101550.06;5052985;28;20017;-81
2023/03/21 02:04:58;;;;;;;16.98;9.27;;;;;;;8.30;100.00;101537.06;5053925;28;20021;-81
2023/03/21 02:07:30;;;;;;;14.95;8.20;;;;;;;8.36;100.00;101541.38;5053434;28;20116;-81
2023/03/21 02:09:57;;;;;;;18.37;8.60;;;;;;;8.32;100.00;101529.28;5039487;28;20033;-81
2023/03/21 02:12:24;;;;;;;15.07;7.78;;;;;;;8.23;100.00;101509.38;5053511;28;20021;-81
2023/03/21 02:14:51;;;;;;;13.88;7.70;;;;;;;8.35;100.00;101529.25;5053184;28;20224;-81
2023/03/21 02:17:39;;;;;;;15.35;8.13;;;;;;;8.34;100.00;101527.53;5052521;28;20444;-81
2023/03/21 02:20:24;;;;;;;18.55;8.50;;;;;;;8.33;100.00;101523.19;5053274;28;20104;-81
2023/03/21 02:23:13;;;;;;;17.73;8.48;;;;;;;8.32;100.00;101521.47;5052882;28;20071;-81
2023/03/21 02:25:54;;;;;;;20.83;8.95;;;;;;;8.31;100.00;101518.03;5053372;28;20029;-81
2023/03/21 02:28:34;;;;;;;18.35;8.68;;;;;;;8.25;100.00;101509.38;5053032;28;20366;-81
2023/03/21 02:31:25;;;;;;;16.25;8.48;;;;;;;8.30;100.00;101516.28;5052132;28;20021;-81
2023/03/21 02:34:12;;;;;;;17.20;9.05;;;;;;;8.29;100.00;101508.50;5040060;28;20033;-81
2023/03/21 02:37:00;;;;;;;14.98;8.30;;;;;;;8.25;100.00;101502.44;5052863;28;20040;-81
2023/03/21 02:39:32;;;;;;;18.98;9.55;;;;;;;8.24;100.00;101503.34;5053252;28;20078;-81
2023/03/21 02:42:06;;;;;;;19.00;8.80;;;;;;;8.27;100.00;101505.88;5053081;28;20025;-81
2023/03/21 02:44:45;;;;;;;17.10;8.60;;;;;;;8.25;100.00;101496.41;5051837;28;20036;-81
2023/03/21 02:47:25;;;;;;;17.10;8.85;;;;;;;8.21;100.00;101483.41;5052796;28;20025;-81
2023/03/21 02:49:57;;;;;;;15.30;8.57;;;;;;;8.20;100.00;101478.22;5052860;28;20039;-81
2023/03/21 02:52:27;;;;;;;15.65;8.25;;;;;;;8.27;100.00;101494.63;5052075;28;20023;-81
2023/03/21 02:54:55;;;;;;;13.25;9.25;;;;;;;8.26;100.00;101500.72;5052655;28;20061;-81
2023/03/21 02:57:21;;;;;;;15.48;8.75;;;;;;;8.23;100.00;101488.59;5052290;28;20487;-81
2023/03/21 02:59:50;;;;;;;15.55;8.88;;;;;;;8.23;100.00;101486.00;5051596;28;20025;-81
2023/03/21 03:02:21;;;;;;;19.67;8.98;;;;;;;8.14;100.00;101478.22;5052704;28;20049;-81
2023/03/21 03:04:47;;;;;;;15.02;8.45;;;;;;;8.23;100.00;101482.53;5052548;28;20799;-81
2023/03/21 03:07:40;;;;;;;15.23;8.82;;;;;;;8.20;100.00;101484.25;5051625;28;20111;-81
2023/03/21 03:10:30;;;;;;;17.73;8.80;;;;;;;8.13;100.00;101479.97;5052559;28;20031;-81
2023/03/21 03:12:59;;;;;;;20.38;9.30;;;;;;;7.95;100.00;101461.88;5051908;28;20013;-81
2023/03/21 03:15:37;;;;;;;19.58;9.15;;;;;;;8.03;100.00;101478.28;5052546;28;20546;-81
2023/03/21 03:18:24;;;;;;;18.55;8.98;;;;;;;8.02;100.00;101481.75;5052400;28;20136;-81
2023/03/21 03:21:15;;;;;;;18.30;9.75;;;;;;;7.96;100.00;101472.22;5051467;28;20029;-81
2023/03/21 03:23:58;;;;;;;18.73;9.65;;;;;;;8.01;100.00;101474.84;5042412;28;20033;-81
2023/03/21 03:26:27;;;;;;;18.98;9.75;;;;;;;8.03;100.00;101469.63;5051496;28;20025;-80
2023/03/21 03:28:58;;;;;;;17.80;9.70;;;;;;;8.01;100.00;101467.03;5052118;28;20532;-81
2023/03/21 03:31:29;;;;;;;18.73;9.35;;;;;;;8.00;100.00;101461.84;5051815;28;20029;-81
2023/03/21 03:33:59;;;;;;;19.63;9.57;;;;;;;7.93;100.00;101448.00;5051444;28;20460;-81
2023/03/21 03:36:34;;;;;;;16.45;9.75;;;;;;;7.89;100.00;101448.91;5052327;28;20036;-81
2023/03/21 03:39:03;;;;;;;16.63;9.27;;;;;;;7.97;100.00;101467.91;5052141;28;20131;-81
2023/03/21 03:41:30;;;;;;;15.77;8.93;;;;;;;7.96;100.00;101468.78;5051401;28;20033;-81
2023/03/21 03:43:58;;;;;;;20.30;10.25;;;;;;;7.94;100.00;101460.09;5053768;28;20025;-81
2023/03/21 03:46:41;;;;;;;19.60;9.88;;;;;;;7.87;100.00;101450.63;5056163;28;20025;-81
2023/03/21 03:49:14;;;;;;;20.10;9.68;;;;;;;7.84;100.00;101442.84;5055720;28;20056;-81
2023/03/21 03:51:54;;;;;;;17.65;9.85;;;;;;;7.91;100.00;101454.94;5055822;28;20029;-81
2023/03/21 03:54:27;;;;;;;19.92;10.15;;;;;;;7.84;100.00;101442.84;5055345;28;20373;-81
2023/03/21 03:56:52;;;;;;;22.40;9.90;;;;;;;7.85;100.00;101440.25;5056476;28;20163;-81
2023/03/21 03:59:20;;;;;;;23.55;9.98;;;;;;;7.92;100.00;101454.06;5056015;28;20115;-81
2023/03/21 04:01:46;;;;;;;19.65;10.00;;;;;;;7.95;100.00;101451.47;5055121;28;20376;-81
2023/03/21 04:04:15;;;;;;;24.85;10.38;;;;;;;7.94;100.00;101453.19;5055731;28;20013;-81
2023/03/21 04:11:44;;;;;;;21.40;10.23;;;;;;;7.93;100.00;101430.69;5094359;28;20055;-81
2023/03/21 04:14:09;;;;;;;20.70;10.30;;;;;;;8.00;100.00;101439.31;5095904;28;20049;-81
2023/03/21 04:16:35;;;;;;;24.95;10.13;;;;;;;7.91;100.00;101423.78;5094953;28;20028;-81
2023/03/21 04:19:01;;;;;;;20.33;9.70;;;;;;;7.92;100.00;101409.94;5095959;28;20064;-81
2023/03/21 04:21:26;;;;;;;22.13;10.25;;;;;;;7.88;100.00;101418.59;5095479;28;20474;-81
2023/03/21 04:23:53;;;;;;;16.83;9.35;;;;;;;8.02;100.00;101431.53;5094872;28;20024;-81
2023/03/21 04:26:20;;;;;;;18.63;9.68;;;;;;;8.04;100.00;101435.84;5095742;28;20024;-81
2023/03/21 04:28:45;;;;;;;21.10;10.55;;;;;;;8.04;100.00;101433.25;5095781;28;20066;-81
2023/03/21 04:31:12;;;;;;;19.38;10.13;;;;;;;8.06;100.00;101428.91;5094856;28;20052;-81
2023/03/21 04:33:37;;;;;;;21.75;10.15;;;;;;;8.08;100.00;101431.53;5095411;28;20488;-81
2023/03/21 04:36:05;;;;;;;18.67;9.88;;;;;;;7.97;100.00;101408.19;5095877;28;20103;-81
2023/03/21 04:38:32;;;;;;;17.45;9.73;;;;;;;8.01;100.00;101409.03;5080935;28;20035;-81
2023/03/21 04:40:58;;;;;;;18.15;9.68;;;;;;;8.00;100.00;101405.56;5095502;28;20024;-81
2023/03/21 04:43:23;;;;;;;17.77;9.65;;;;;;;8.06;100.00;101408.16;5095674;28;20045;-81
2023/03/21 04:45:49;;;;;;;23.50;10.60;;;;;;;8.09;100.00;101417.66;5094184;28;20455;-81
2023/03/21 04:48:16;;;;;;;19.30;9.82;;;;;;;8.08;100.00;101410.75;5095138;28;20032;-81
2023/03/21 04:50:43;;;;;;;18.90;9.68;;;;;;;8.10;100.00;101420.25;5094184;28;20467;-81
2023/03/21 04:53:08;;;;;;;24.52;10.15;;;;;;;8.10;100.00;101415.03;5095175;28;20020;-81
2023/03/21 04:55:35;;;;;;;21.65;10.05;;;;;;;8.11;100.00;101410.72;5094537;28;20024;-81
2023/03/21 04:58:02;;;;;;;20.70;10.90;;;;;;;8.09;100.00;101404.69;5094531;28;20035;-81
2023/03/21 05:00:27;;;;;;;19.92;9.85;;;;;;;8.09;100.00;101402.94;5094614;28;20490;-81
2023/03/21 05:02:52;;;;;;;17.75;9.10;;;;;;;8.12;100.00;101402.94;5095062;28;20024;-81
2023/03/21 05:05:18;;;;;;;20.67;10.15;;;;;;;8.06;100.00;101397.75;5094556;28;20050;-81
2023/03/21 05:07:43;;;;;;;21.73;10.32;;;;;;;8.14;100.00;101405.50;5094737;28;20031;-81
2023/03/21 05:10:10;;;;;;;19.88;9.27;;;;;;;8.09;100.00;101395.16;5095003;28;20040;-81
2023/03/21 05:12:36;;;;;;;18.33;9.65;;;;;;;8.15;100.00;101400.31;5093922;28;20035;-81
2023/03/21 05:15:02;;;;;;;20.67;9.82;;;;;;;8.16;100.00;101408.97;5094989;28;20016;-81
2023/03/21 05:17:28;;;;;;;19.52;9.52;;;;;;;8.09;100.00;101392.56;5094746;28;20028;-81
2023/03/21 05:19:55;;;;;;;21.08;9.25;;;;;;;8.15;100.00;101402.91;5094249;28;20437;-81
2023/03/21 05:22:23;;;;;;;17.40;9.38;;;;;;;8.10;100.00;101394.28;5094449;28;20031;-82
2023/03/21 05:24:49;;;;;;;20.27;9.52;;;;;;;8.14;100.00;101401.19;5094357;28;20035;-81
2023/03/21 05:27:34;;;;;;;19.85;9.93;;;;;;;8.14;100.00;101401.19;5093928;28;20040;-82
2023/03/21 05:30:01;;;;;;;20.73;9.05;;;;;;;8.14;100.00;101401.19;5080859;28;20432;-82
2023/03/21 05:32:27;;;;;;;17.08;9.18;;;;;;;8.10;100.00;101383.88;5094949;28;20368;-82
2023/03/21 05:37:28;;;;;;;14.23;9.40;;;;;;;8.12;100.00;101391.69;5108702;22;20052;-81
2023/03/21 05:39:53;;;;;;;18.73;9.20;;;;;;;8.10;100.00;101383.88;5093476;28;20023;-81
2023/03/21 05:42:19;;;;;;;17.08;9.38;;;;;;;8.19;100.00;101393.38;5094461;28;20028;-81
2023/03/21 05:44:45;;;;;;;18.65;9.85;;;;;;;8.09;100.00;101382.16;5094066;28;20107;-82
2023/03/21 05:47:11;;;;;;;15.85;9.15;;;;;;;8.17;100.00;101397.69;5093061;28;20107;-82
2023/03/21 05:49:37;;;;;;;21.35;9.40;;;;;;;8.20;100.00;101398.56;5093629;28;20024;-81
2023/03/21 05:52:03;;;;;;;21.80;9.30;;;;;;;8.20;100.00;101392.50;5093791;28;20523;-81
2023/03/21 05:54:28;;;;;;;17.38;8.93;;;;;;;8.20;100.00;101395.94;5093234;28;20093;-82
2023/03/21 06:19:16;;;;;;;14.70;7.85;;;;;;;7.87;100.00;101311.28;5087202;28;20039;-81
2023/03/21 06:24:45;;;;;;;12.02;6.75;;;;;;;8.43;100.00;101403.66;5475607;22;20398;-82
2023/03/21 06:27:32;;;;;;;19.00;7.68;;;;;;;8.49;100.00;101397.56;5082264;28;20447;-81
2023/03/21 06:40:38;;;;;;;16.20;7.30;;;;;;;8.45;100.00;101416.66;5011258;28;20528;-81
2023/03/21 06:46:25;;;;;;;18.00;7.32;;;;;;;8.29;100.00;101410.63;5266706;22;20054;-82
2023/03/21 06:48:50;;;;;;;15.95;6.93;;;;;;;8.22;100.00;101408.94;5079990;28;20107;-82
2023/03/21 06:51:15;;;;;;;16.65;7.85;;;;;;;8.13;100.00;101401.19;5092248;28;20467;-82
2023/03/21 06:53:43;;;;;;;13.75;7.60;;;;;;;8.15;100.00;101408.13;5092750;28;20073;-83
2023/03/21 06:56:10;;;;;;;18.15;7.80;;;;;;;8.06;100.00;101397.75;5402404;22;20022;-83
2023/03/21 06:58:37;;;;;;;22.17;8.48;;;;;;;8.05;100.00;101401.25;5077808;28;20111;-84
2023/03/21 07:01:03;;;;;;;19.15;8.45;;;;;;;8.07;100.00;101398.63;5092783;28;20028;-84
2023/03/21 07:03:30;;;;;;;19.45;7.97;;;;;;;8.14;100.00;101416.78;5092313;28;20036;-84
2023/03/21 07:05:56;;;;;;;18.10;8.32;;;;;;;8.16;100.00;101419.38;5091993;28;20027;-84
2023/03/21 07:08:22;;;;;;;17.67;8.23;;;;;;;8.16;100.00;101420.22;5092957;28;20027;-84
2023/03/21 07:10:47;;;;;;;17.83;8.35;;;;;;;8.17;100.00;101427.16;5078473;28;20025;-84
2023/03/21 07:13:13;;;;;;;18.05;7.82;;;;;;;8.14;100.00;101411.59;5091951;28;20020;-84
2023/03/21 07:15:40;;;;;;;20.15;8.32;;;;;;;8.19;100.00;101427.16;5092432;28;20028;-84
2023/03/21 07:18:07;;;;;;;19.45;8.40;;;;;;;8.18;100.00;101415.91;5092615;28;20020;-84
2023/03/21 07:20:34;;;;;;;20.77;8.60;;;;;;;8.19;100.00;101414.16;5092067;28;20031;-84
2023/03/21 07:22:59;;;;;;;20.20;9.38;;;;;;;8.30;100.00;101430.53;5092389;28;20047;-84
2023/03/21 07:25:25;;;;;;;16.80;8.35;;;;;;;8.24;100.00;101422.81;5091971;28;20019;-83
2023/03/21 07:27:51;;;;;;;20.20;8.68;;;;;;;8.25;100.00;101419.31;5092252;28;20035;-84
2023/03/21 07:30:16;;;;;;;27.65;10.93;;;;;;;8.24;100.00;101419.31;5092647;28;20047;-84
2023/03/21 07:32:44;;;;;;;23.23;9.73;;;;;;;8.27;100.00;101427.09;5076908;28;20020;-85
2023/03/21 07:35:12;;;;;;;20.35;9.45;;;;;;;8.29;100.00;101433.16;5092832;28;20020;-86
2023/03/21 07:37:38;;;;;;;18.60;10.10;;;;;;;8.32;100.00;101435.75;5092122;28;20028;-86
2023/03/21 07:40:12;;;;;;;17.80;10.32;;;;;;;8.27;100.00;101427.97;5086860;28;20073;-86
2023/03/21 07:42:38;;;;;;;;;;;;;;;8.30;100.00;101435.72;5084997;28;20031;-86
2023/03/21 07:45:04;;;;;;;20.40;10.70;;;;;;;8.28;100.00;101421.06;5092349;28;19911;-85
2023/03/21 07:47:29;;;;;;;23.10;10.65;;;;;;;8.31;100.00;101418.44;5091781;28;20467;-85
2023/03/21 07:49:55;;;;;;;24.88;11.05;;;;;;;8.29;100.00;101420.19;5092480;28;20028;-86
2023/03/21 07:53:23;;;;;;;28.95;11.60;;;;;;;8.27;100.00;101411.50;5266520;22;20571;-86
2023/03/21 07:55:50;;;;;;;24.27;11.43;;;;;;;8.03;100.00;101364.00;5060175;28;20085;-86
2023/03/21 07:58:33;;;;;;;21.67;11.50;;;;;;;7.96;100.00;101345.00;5070710;28;20064;-85
2023/03/21 08:01:00;;;;;;;23.55;11.40;;;;;;;8.40;100.00;101393.31;5071547;28;20464;-86
2023/03/21 08:07:32;;;;;;;20.70;12.13;;;;;;;8.56;100.00;101393.19;4971040;28;20523;-86
2023/03/21 08:10:07;;;;;;;26.95;12.35;;;;;;;8.56;100.00;101352.47;4989375;28;20033;-86
2023/03/21 08:12:32;;;;;;;25.45;12.40;;;;;;;8.78;100.00;101373.97;5068231;28;20012;-86
2023/03/21 08:14:57;;;;;;;30.27;12.05;;;;;;;8.37;100.00;101298.88;5071433;28;20518;-85
2023/03/21 08:24:09;;;;;;;30.77;12.05;;;;;;;8.62;100.00;101338.59;5009459;28;20033;-85
2023/03/21 08:26:40;;;;;;;25.35;12.07;;;;;;;8.66;100.00;101364.56;5063574;28;20032;-84
2023/03/21 08:35:23;;;;;;;23.60;10.63;;;;;;;8.53;100.00;101354.22;5125540;22;20105;-84
2023/03/21 08:37:48;;;;;;;21.40;11.13;;;;;;;8.53;100.00;101347.28;5080107;28;20422;-84
2023/03/21 08:40:15;;;;;;;17.95;11.25;;;;;;;8.58;100.00;101345.53;5095574;28;20046;-83
2023/03/21 08:42:42;;;;;;;24.08;10.73;;;;;;;8.67;100.00;101349.81;5094548;28;20486;-84
2023/03/21 08:45:09;;;;;;;20.00;9.27;;;;;;;8.68;100.00;101355.00;5095281;28;20533;-83
2023/03/21 08:47:35;;;;;;;15.23;9.30;;;;;;;8.62;100.00;101349.84;5095339;28;20348;-83
2023/03/21 08:50:00;;;;;;;15.70;8.27;;;;;;;8.57;100.00;101349.03;5091672;28;20657;-83
2023/03/21 08:52:26;;;;;;;17.10;9.75;;;;;;;8.66;100.00;101353.28;5075276;28;20091;-83
2023/03/21 08:54:52;;;;;;;17.42;9.27;;;;;;;8.69;100.00;101345.44;5075384;28;20024;-84
2023/03/21 08:57:18;;;;;;;17.40;9.60;;;;;;;8.68;100.00;101342.00;5094606;28;20031;-83
2023/03/21 08:59:43;;;;;;;20.05;9.90;;;;;;;8.83;100.00;101342.78;5094885;28;20024;-83
2023/03/21 09:02:12;;;;;;;16.08;9.48;;;;;;;8.82;100.00;101333.22;5094855;28;20395;-83
2023/03/21 09:04:38;;;;;;;20.27;9.38;;;;;;;8.84;100.00;101336.69;5086687;28;20028;-83
2023/03/21 09:07:04;;;;;;;17.80;9.80;;;;;;;8.93;100.00;101323.59;5088150;28;20024;-83
2023/03/21 09:09:30;;;;;;;18.73;11.00;;;;;;;9.03;100.00;101333.03;5094443;28;20032;-82
2023/03/21 09:12:05;;;;;;;23.38;10.00;;;;;;;9.08;100.00;101333.84;5094049;28;20020;-83
2023/03/21 09:17:41;;;;;;;17.50;9.18;;;;;;;9.10;100.00;101334.72;3296956;26;20526;-83
2023/03/21 09:20:45;;;;;;;15.63;8.73;;;;;;;8.62;100.00;101268.41;5082952;28;20024;-83
2023/03/21 09:23:12;;;;;;;17.20;9.20;;;;;;;8.67;100.00;101262.31;5057445;28;20036;-83
2023/03/21 09:25:59;;;;;;;19.48;8.55;;;;;;;9.11;100.00;101331.22;5093945;28;20107;-82
2023/03/21 09:28:43;;;;;;;17.13;9.40;;;;;;;8.83;100.00;101256.97;5094783;28;20047;-83
2023/03/21 09:31:10;;;;;;;;;;;;;;;9.27;100.00;101321.53;5094833;28;20030;-83
2023/03/21 09:33:38;;;;;;;14.82;8.35;;;;;;;9.24;100.00;101318.09;5093761;28;20062;-83
2023/03/21 09:36:05;;;;;;;16.33;8.57;;;;;;;9.30;100.00;101320.63;5094449;28;20028;-83
2023/03/21 09:38:35;;;;;;;18.63;9.13;;;;;;;9.20;100.00;101303.41;5094417;28;20027;-83
2023/03/21 09:41:22;;;;;;;15.02;8.35;;;;;;;9.32;100.00;101316.28;5093772;28;20028;-83
2023/03/21 09:44:16;;;;;;;16.77;8.05;;;;;;;9.36;100.00;101316.22;5094263;28;20111;-82
2023/03/21 09:46:49;;;;;;;14.80;7.72;;;;;;;9.37;100.00;101312.75;5093293;28;20443;-83
2023/03/21 09:49:34;;;;;;;16.87;8.20;;;;;;;9.49;100.00;101319.56;5094375;28;20035;-83
2023/03/21 09:52:04;;;;;;;15.57;7.43;;;;;;;9.56;100.00;101318.59;5094099;28;20278;-83
2023/03/21 09:54:38;;;;;;;12.85;7.68;;;;;;;9.72;100.00;101313.22;5093475;28;20473;-83
2023/03/21 09:57:18;;;;;;;11.40;7.10;;;;;;;9.91;100.00;101299.09;5093928;28;20329;-83
2023/03/21 09:59:47;;;;;;;14.82;6.85;;;;;;;10.16;100.00;101298.72;5093595;28;20128;-82
2023/03/21 10:02:31;;;;;;;10.40;6.28;;;;;;;10.26;100.00;101300.34;5092846;28;20016;-82
2023/03/21 10:04:59;;;;;;;15.63;7.05;;;;;;;10.37;100.00;101289.78;5094034;28;20028;-82
2023/03/21 10:07:27;;;;;;;10.77;6.57;;;;;;;10.46;100.00;101293.13;5093124;28;20343;-83
2023/03/21 10:09:53;;;;;;;12.25;6.60;;;;;;;10.53;100.00;101289.50;5093757;28;20020;-83
2023/03/21 10:12:22;;;;;;;14.73;6.97;;;;;;;10.60;100.00;101277.25;5093860;28;20043;-82
2023/03/21 10:14:52;;;;;;;18.30;6.97;;;;;;;10.72;100.00;101287.44;5092848;28;20089;-83
2023/03/21 10:17:40;;;;;;;13.13;6.05;;;;;;;10.84;100.00;101281.16;5086549;28;20063;-83
2023/03/21 10:20:15;;;;;;;11.05;6.30;;;;;;;11.09;100.00;101278.13;5089221;28;20494;-83
2023/03/21 10:22:42;;;;;;;17.55;6.32;;;;;;;11.26;100.00;101286.50;5092311;28;20020;-83
2023/03/21 10:25:13;;;;;;;11.90;6.22;;;;;;;11.35;100.00;101264.59;5093405;28;20024;-82
2023/03/21 10:27:39;;;;;;;10.50;5.78;;;;;;;11.50;100.00;101282.53;5093169;28;20036;-83
2023/03/21 10:30:06;;;;;;;13.35;6.30;;;;;;;11.50;100.00;101272.09;5092920;28;20042;-83
2023/03/21 10:32:32;;;;;;;9.85;5.38;;;;;;;11.52;100.00;101277.28;5079500;28;20074;-83
2023/03/21 10:34:59;;;;;;;10.52;5.40;;;;;;;11.44;100.00;101275.69;5093208;28;20525;-83
2023/03/21 10:37:25;;;;;;;13.43;5.13;;;;;;;11.58;100.00;101274.56;5092483;28;20047;-82
2023/03/21 10:39:52;;;;;;;12.13;5.47;;;;;;;11.80;100.00;101274.94;5092860;28;20028;-82
2023/03/21 10:42:28;;;;;;;10.23;5.43;;;;;;;11.98;100.00;101265.88;5092221;28;20042;-83
2023/03/21 10:44:56;;;;;;;10.25;5.88;;;;;;;12.14;100.00;101282.94;5093370;28;20027;-83
2023/03/21 10:47:28;;;;;;;9.63;5.70;;;;;;;12.12;100.00;101282.97;5093480;28;20250;-83
2023/03/21 10:49:54;;;;;;;11.07;5.70;;;;;;;12.23;100.00;101271.38;5092375;28;20032;-82
2023/03/21 10:57:29;;;;;;;10.43;5.57;;;;;;;12.62;100.00;101280.91;5226386;22;20048;-83
2023/03/21 11:00:00;;;;;;;9.55;5.25;;;;;;;12.80;100.00;101270.88;5092674;28;20039;-83
2023/03/21 11:02:37;;;;;;;9.43;5.40;;;;;;;13.02;100.00;101258.09;5092737;28;20099;-83
2023/03/21 11:05:17;;;;;;;8.90;5.38;;;;;;;13.06;100.00;101257.09;5092286;28;20028;-83
2023/03/21 11:07:43;;;;;;;14.57;4.88;;;;;;;13.12;100.00;101256.94;5092325;28;20405;-83
2023/03/21 11:10:14;;;;;;;9.38;5.15;;;;;;;13.02;97.53;101261.56;5082093;28;20023;-83
2023/03/21 11:12:45;;;;;;;9.13;4.70;;;;;;;12.91;99.11;101250.50;5089494;28;20051;-83
2023/03/21 11:15:31;;;;;;;8.63;4.18;;;;;;;12.95;99.54;101256.50;5082499;28;20055;-82
2023/03/21 11:18:13;;;;;;;12.43;5.15;;;;;;;12.86;94.98;101253.25;5090907;28;20034;-83
2023/03/21 11:23:36;;;;;;;15.82;5.05;;;;;;;12.89;98.09;101263.66;5044901;28;20045;-82
2023/03/21 11:26:35;;;;;;;8.27;5.15;;;;;;;13.00;96.00;101268.59;5041886;28;20041;-82
2023/03/21 11:29:40;;;;;;;7.13;4.45;;;;;;;12.96;95.16;101253.88;5044766;28;20017;-82
2023/03/21 11:32:34;;;;;;;12.80;4.85;;;;;;;13.02;94.97;101258.09;5020202;28;20042;-83
2023/03/21 11:35:31;;;;;;;12.68;4.80;;;;;;;13.14;94.94;101255.13;5032136;28;20014;-82
2023/03/21 11:38:52;;;;;;;9.57;4.20;;;;;;;13.18;91.15;101253.25;5046282;28;20032;-82
2023/03/21 11:42:01;;;;;;;8.85;4.28;;;;;;;13.08;90.39;101222.13;5048474;28;20063;-82
2023/03/21 11:44:43;;;;;;;10.27;4.35;;;;;;;12.96;89.76;101174.50;5030050;28;20064;-82
2023/03/21 11:47:11;;;;;;;8.63;4.53;;;;;;;13.17;87.31;101202.69;4997148;28;20491;-82
2023/03/21 11:49:58;;;;;;;11.93;4.68;;;;;;;13.65;88.77;101256.34;5023384;28;20026;-82
2023/03/21 11:59:56;;;;;;;6.88;4.18;;;;;;;14.04;82.77;101235.91;5006193;28;20036;-82
2023/03/21 12:09:13;;;;;;;9.02;4.68;;;;;;;13.73;84.06;101236.88;5815232;22;20056;-82
2023/03/21 12:11:58;;;;;;;13.00;4.70;;;;;;;13.98;80.60;101216.00;5086820;28;20020;-81
2023/03/21 12:14:32;;;;;;;9.90;4.55;;;;;;;14.35;82.61;101234.91;5089276;28;20107;-81
2023/03/21 12:17:19;;;;;;;9.98;4.50;;;;;;;14.47;82.68;101211.75;5075752;28;20796;-81
2023/03/21 12:20:04;;;;;;;15.05;4.55;;;;;;;14.63;78.72;101206.88;5089777;28;20029;-81
2023/03/21 12:22:59;;;;;;;8.82;4.30;;;;;;;14.81;73.99;101191.41;5074611;28;20028;-82
2023/03/21 12:25:39;;;;;;;8.38;4.95;;;;;;;14.99;74.95;101196.84;5034625;28;20388;-82
2023/03/21 12:28:23;;;;;;;12.07;4.65;;;;;;;15.14;72.51;101195.47;5074709;28;20016;-82
2023/03/21 12:31:08;;;;;;;12.93;4.70;;;;;;;15.26;71.55;101194.13;5075669;28;20020;-81
2023/03/21 12:33:48;;;;;;;7.68;4.05;;;;;;;15.09;72.20;101194.75;5062881;28;20025;-81
2023/03/21 12:36:20;;;;;;;13.80;5.13;;;;;;;14.85;71.72;101187.78;5076095;28;20029;-82
2023/03/21 12:39:09;;;;;;;9.05;4.78;;;;;;;14.63;72.99;101203.41;5095257;28;20130;-81
2023/03/21 12:42:04;;;;;;;9.18;4.32;;;;;;;14.37;74.27;101180.66;5081224;28;20020;-81
2023/03/21 12:51:32;;;;;;;9.95;5.10;;;;;;;13.39;74.85;101115.69;5032806;22;20072;-81
2023/03/21 13:08:08;;;;;;;8.88;4.63;;;;;;;15.64;68.21;101144.53;5074942;28;20124;-81
2023/03/21 13:21:50;;;;;;;7.60;4.18;;;;;;;17.48;58.40;101141.81;5006654;28;20453;-81
2023/03/21 13:28:01;;;;;;;8.80;4.80;;;;;;;16.51;59.45;101161.09;5066094;28;20059;-81
2023/03/21 13:30:38;;;;;;;6.97;4.78;;;;;;;16.19;60.67;101123.88;5074167;28;20024;-81
2023/03/21 13:33:29;;;;;;;12.63;4.63;;;;;;;16.37;62.25;101148.53;5073481;28;20028;-81
2023/03/21 13:36:37;;;;;;;7.38;4.47;;;;;;;16.39;62.19;101139.66;5074282;28;20502;-81
2023/03/21 13:40:00;;;;;;;8.45;4.97;;;;;;;15.85;60.77;101058.69;5027741;28;20041;-81
2023/03/21 13:43:29;;;;;;;7.05;4.40;;;;;;;16.43;61.62;101143.03;5073819;28;20020;-81
2023/03/21 13:50:04;;;;;;;8.15;4.57;;;;;;;15.59;59.86;101034.31;4973377;28;20182;-81